createdAt,value
2018-05-21T00:00:51.770Z,6.50
2018-05-21T00:03:19.703Z,6.50
2018-05-21T00:05:46.208Z,6.50
2018-05-21T00:08:12.588Z,6.50
2018-05-21T00:10:39.205Z,6.40
2018-05-21T00:13:05.770Z,6.40
2018-05-21T00:15:33.029Z,6.30
2018-05-21T00:18:00.456Z,6.30
2018-05-21T00:20:27.589Z,6.30
2018-05-21T00:22:54.040Z,6.30
2018-05-21T00:25:22.049Z,6.30
2018-05-21T00:27:48.627Z,6.30
2018-05-21T00:30:15.110Z,6.30
2018-05-21T00:32:41.496Z,6.30
2018-05-21T00:35:07.978Z,6.30
2018-05-21T00:37:34.489Z,6.20
2018-05-21T00:40:01.007Z,6.20
2018-05-21T00:42:27.411Z,6.20
2018-05-21T00:44:53.877Z,6.20
2018-05-21T00:47:20.427Z,6.10
2018-05-21T00:49:47.672Z,6.10
2018-05-21T00:52:15.828Z,6.00
2018-05-21T00:54:45.953Z,6.00
2018-05-21T00:57:13.059Z,6.00
2018-05-21T00:59:39.554Z,5.90
2018-05-21T01:02:06.719Z,5.90
2018-05-21T01:04:33.315Z,5.90
2018-05-21T01:06:59.788Z,5.90
2018-05-21T01:09:26.589Z,5.80
2018-05-21T01:11:54.526Z,5.90
2018-05-21T01:14:20.932Z,5.90
2018-05-21T01:16:47.344Z,5.90
2018-05-21T01:19:14.640Z,5.80
2018-05-21T01:21:41.082Z,5.80
2018-05-21T01:24:07.592Z,5.80
2018-05-21T01:26:34.429Z,5.80
2018-05-21T01:29:00.990Z,5.70
2018-05-21T01:31:27.344Z,5.70
2018-05-21T01:33:55.195Z,5.70
2018-05-21T01:36:21.638Z,5.80
2018-05-21T01:38:48.033Z,5.70
2018-05-21T01:41:14.733Z,5.70
2018-05-21T01:43:41.934Z,5.60
2018-05-21T01:46:08.325Z,5.60
2018-05-21T01:48:35.415Z,5.50
2018-05-21T01:51:01.835Z,5.50
2018-05-21T01:53:28.225Z,5.50
2018-05-21T01:55:55.408Z,5.50
2018-05-21T01:58:21.869Z,5.50
2018-05-21T02:00:48.397Z,5.50
2018-05-21T02:03:15.177Z,5.50
2018-05-21T02:05:42.297Z,5.40
2018-05-21T02:08:10.314Z,5.30
2018-05-21T02:10:36.784Z,5.30
2018-05-21T02:13:03.154Z,5.30
2018-05-21T02:15:30.351Z,5.20
2018-05-21T02:17:56.917Z,5.20
2018-05-21T02:20:23.242Z,5.10
2018-05-21T02:22:50.437Z,5.10
2018-05-21T02:25:16.923Z,5.10
2018-05-21T02:27:43.268Z,5.20
2018-05-21T02:30:09.790Z,5.20
2018-05-21T02:32:36.325Z,5.10
2018-05-21T02:35:02.834Z,5.10
2018-05-21T02:37:29.243Z,5.10
2018-05-21T02:39:55.712Z,5.00
2018-05-21T02:42:22.126Z,5.00
2018-05-21T02:44:48.883Z,5.00
2018-05-21T02:47:16.005Z,5.00
2018-05-21T02:49:42.623Z,5.00
2018-05-21T02:52:09.074Z,4.90
2018-05-21T02:54:35.637Z,5.00
2018-05-21T02:57:02.951Z,5.00
2018-05-21T02:59:29.328Z,4.90
2018-05-21T03:01:55.726Z,5.00
2018-05-21T03:04:22.268Z,4.90
2018-05-21T03:06:48.604Z,4.80
2018-05-21T03:09:15.061Z,4.80
2018-05-21T03:11:41.498Z,4.80
2018-05-21T03:14:08.188Z,4.70
2018-05-21T03:16:35.198Z,4.80
2018-05-21T03:19:02.373Z,4.80
2018-05-21T03:21:28.866Z,4.80
2018-05-21T03:23:55.932Z,4.80
2018-05-21T03:26:23.138Z,4.80
2018-05-21T03:28:49.738Z,4.80
2018-05-21T03:31:16.412Z,4.80
2018-05-21T03:33:42.728Z,4.80
2018-05-21T03:36:09.051Z,4.80
2018-05-21T03:38:35.673Z,4.80
2018-05-21T03:41:02.202Z,4.70
2018-05-21T03:43:28.697Z,4.70
2018-05-21T03:45:55.039Z,4.70
2018-05-21T03:48:22.154Z,4.80
2018-05-21T03:50:48.572Z,4.80
2018-05-21T03:53:15.112Z,4.90
2018-05-21T03:55:41.547Z,4.90
2018-05-21T03:58:20.334Z,4.90
2018-05-21T04:00:58.876Z,4.90
2018-05-21T04:03:37.592Z,5.00
2018-05-21T04:06:04.001Z,5.00
2018-05-21T04:08:30.363Z,5.00
2018-05-21T04:10:56.696Z,5.00
2018-05-21T04:13:23.182Z,5.00
2018-05-21T04:15:49.538Z,5.00
2018-05-21T04:18:15.905Z,5.10
2018-05-21T04:20:43.084Z,5.10
2018-05-21T04:23:10.819Z,5.10
2018-05-21T04:25:37.255Z,5.20
2018-05-21T04:28:03.638Z,5.20
2018-05-21T04:30:30.428Z,5.30
2018-05-21T04:32:56.765Z,5.40
2018-05-21T04:35:24.039Z,5.50
2018-05-21T04:37:50.426Z,5.40
2018-05-21T04:40:18.404Z,5.60
2018-05-21T04:42:44.988Z,5.60
2018-05-21T04:45:11.417Z,5.60
2018-05-21T04:47:37.825Z,5.70
2018-05-21T04:50:04.922Z,5.90
2018-05-21T04:52:31.470Z,5.90
2018-05-21T04:54:58.823Z,6.10
2018-05-21T04:57:25.480Z,6.00
2018-05-21T04:59:51.998Z,6.10
2018-05-21T05:02:18.393Z,6.20
2018-05-21T05:04:44.756Z,6.30
2018-05-21T05:07:12.029Z,6.40
2018-05-21T05:09:39.273Z,6.50
2018-05-21T05:12:07.203Z,6.60
2018-05-21T05:14:34.059Z,6.60
2018-05-21T05:17:00.372Z,6.80
2018-05-21T05:19:26.871Z,7.00
2018-05-21T05:21:53.443Z,7.20
2018-05-21T05:24:19.891Z,7.30
2018-05-21T05:26:46.384Z,7.50
2018-05-21T05:29:12.804Z,7.60
2018-05-21T05:31:40.010Z,7.80
2018-05-21T05:34:06.391Z,7.80
2018-05-21T05:36:33.601Z,8.00
2018-05-21T05:39:00.134Z,8.10
2018-05-21T05:41:26.519Z,8.20
2018-05-21T05:43:52.942Z,8.30
2018-05-21T05:46:19.466Z,8.50
2018-05-21T05:48:46.641Z,9.60
2018-05-21T05:51:13.187Z,9.50
2018-05-21T05:53:39.722Z,10.20
2018-05-21T05:56:06.928Z,10.60
2018-05-21T05:58:34.136Z,11.20
2018-05-21T06:01:00.567Z,11.20
2018-05-21T06:03:27.807Z,11.80
2018-05-21T06:05:54.256Z,11.80
2018-05-21T06:08:20.800Z,12.10
2018-05-21T06:10:47.311Z,12.60
2018-05-21T06:13:13.855Z,13.40
2018-05-21T06:15:40.229Z,14.50
2018-05-21T06:18:07.434Z,16.40
2018-05-21T06:20:34.067Z,16.30
2018-05-21T06:23:00.672Z,17.20
2018-05-21T06:25:27.317Z,17.80
2018-05-21T06:27:53.759Z,18.40
2018-05-21T06:30:20.166Z,19.00
2018-05-21T06:32:46.601Z,19.30
2018-05-21T06:35:13.436Z,19.70
2018-05-21T06:37:40.074Z,20.10
2018-05-21T06:40:06.663Z,20.60
2018-05-21T06:42:33.325Z,20.80
2018-05-21T06:45:00.747Z,21.30
2018-05-21T06:47:27.187Z,21.20
2018-05-21T06:49:53.718Z,21.40
2018-05-21T06:52:20.141Z,21.40
2018-05-21T06:54:46.630Z,21.40
2018-05-21T06:57:13.123Z,21.60
2018-05-21T06:59:39.561Z,21.70
2018-05-21T07:02:06.993Z,21.40
2018-05-21T07:04:33.590Z,21.30
2018-05-21T07:07:00.198Z,20.90
2018-05-21T07:09:27.507Z,20.40
2018-05-21T07:11:53.959Z,20.40
2018-05-21T07:14:20.679Z,20.50
2018-05-21T07:16:47.747Z,20.60
2018-05-21T07:19:14.278Z,20.20
2018-05-21T07:21:40.677Z,20.40
2018-05-21T07:24:07.253Z,20.50
2018-05-21T07:26:35.024Z,20.50
2018-05-21T07:29:01.401Z,20.40
2018-05-21T07:31:27.988Z,20.10
2018-05-21T07:33:54.369Z,20.10
2018-05-21T07:36:21.091Z,20.20
2018-05-21T07:38:47.635Z,20.30
2018-05-21T07:41:15.005Z,20.10
2018-05-21T07:43:41.566Z,20.10
2018-05-21T07:46:07.993Z,20.30
2018-05-21T07:48:34.554Z,20.30
2018-05-21T07:51:01.686Z,20.40
2018-05-21T07:53:29.005Z,20.50
2018-05-21T07:55:55.432Z,20.50
2018-05-21T07:58:21.991Z,20.30
2018-05-21T08:00:48.392Z,20.30
2018-05-21T08:03:15.890Z,20.20
2018-05-21T08:05:42.455Z,20.40
2018-05-21T08:08:09.892Z,20.60
2018-05-21T08:10:36.324Z,20.60
2018-05-21T08:13:02.718Z,20.80
2018-05-21T08:15:29.384Z,21.00
2018-05-21T08:17:55.832Z,20.80
2018-05-21T08:20:22.194Z,20.80
2018-05-21T08:22:48.605Z,21.00
2018-05-21T08:25:15.064Z,21.20
2018-05-21T08:27:41.680Z,21.40
2018-05-21T08:30:08.840Z,21.20
2018-05-21T08:32:35.450Z,21.20
2018-05-21T08:35:02.852Z,21.00
2018-05-21T08:37:29.344Z,20.90
2018-05-21T08:39:56.613Z,21.00
2018-05-21T08:42:23.717Z,21.00
2018-05-21T08:44:50.178Z,21.10
2018-05-21T08:47:16.624Z,21.30
2018-05-21T08:49:43.810Z,21.40
2018-05-21T08:52:10.310Z,21.40
2018-05-21T08:54:37.061Z,21.30
2018-05-21T08:57:03.552Z,21.30
2018-05-21T08:59:30.174Z,21.40
2018-05-21T09:01:56.682Z,21.40
2018-05-21T09:04:23.360Z,21.40
2018-05-21T09:06:49.845Z,21.40
2018-05-21T09:09:16.435Z,21.50
2018-05-21T09:11:43.651Z,21.40
2018-05-21T09:14:10.169Z,21.40
2018-05-21T09:16:36.947Z,21.50
2018-05-21T09:19:03.476Z,21.30
2018-05-21T09:21:29.914Z,21.50
2018-05-21T09:23:56.334Z,21.60
2018-05-21T09:26:22.868Z,21.80
2018-05-21T09:28:49.318Z,21.80
2018-05-21T09:31:16.055Z,21.80
2018-05-21T09:33:42.487Z,21.90
2018-05-21T09:36:09.143Z,22.00
2018-05-21T09:38:35.707Z,22.20
2018-05-21T09:41:02.420Z,22.20
2018-05-21T09:43:29.221Z,22.40
2018-05-21T09:45:55.897Z,22.40
2018-05-21T09:48:24.026Z,22.20
2018-05-21T09:50:50.542Z,22.20
2018-05-21T09:53:17.227Z,21.90
2018-05-21T09:55:43.969Z,21.60
2018-05-21T09:58:10.354Z,21.60
2018-05-21T10:00:36.916Z,21.70
2018-05-21T10:03:03.335Z,21.80
2018-05-21T10:05:29.786Z,22.10
2018-05-21T10:07:57.390Z,22.00
2018-05-21T10:10:23.956Z,21.90
2018-05-21T10:12:50.722Z,22.10
2018-05-21T10:15:18.140Z,22.20
2018-05-21T10:17:44.977Z,22.30
2018-05-21T10:20:12.145Z,22.60
2018-05-21T10:22:38.705Z,22.60
2018-05-21T10:25:05.193Z,22.70
2018-05-21T10:27:31.993Z,22.40
2018-05-21T10:29:58.717Z,22.20
2018-05-21T10:32:25.501Z,22.20
2018-05-21T10:34:52.838Z,22.10
2018-05-21T10:37:19.999Z,22.10
2018-05-21T10:39:47.260Z,22.30
2018-05-21T10:42:13.638Z,22.30
2018-05-21T10:44:40.380Z,22.50
2018-05-21T10:47:07.052Z,22.60
2018-05-21T10:49:34.376Z,22.50
2018-05-21T10:52:01.183Z,22.50
2018-05-21T10:54:27.703Z,22.40
2018-05-21T10:56:54.149Z,22.50
2018-05-21T10:59:20.679Z,22.60
2018-05-21T11:01:47.411Z,22.40
2018-05-21T11:04:13.939Z,22.40
2018-05-21T11:06:41.246Z,22.50
2018-05-21T11:09:07.964Z,22.50
2018-05-21T11:11:35.697Z,22.40
2018-05-21T11:14:02.836Z,22.30
2018-05-21T11:16:29.892Z,22.80
2018-05-21T11:18:56.372Z,22.80
2018-05-21T11:21:22.759Z,22.80
2018-05-21T11:23:49.368Z,23.00
2018-05-21T11:26:15.787Z,22.90
2018-05-21T11:28:42.221Z,22.70
2018-05-21T11:31:09.559Z,22.80
2018-05-21T11:33:36.160Z,22.80
2018-05-21T11:36:02.839Z,22.40
2018-05-21T11:38:29.260Z,22.40
2018-05-21T11:40:56.055Z,22.50
2018-05-21T11:43:22.540Z,22.80
2018-05-21T11:45:48.924Z,22.80
2018-05-21T11:48:15.360Z,23.00
2018-05-21T11:50:41.841Z,22.90
2018-05-21T11:53:08.724Z,23.10
2018-05-21T11:55:35.858Z,23.10
2018-05-21T11:58:03.059Z,23.00
2018-05-21T12:00:29.539Z,23.00
2018-05-21T12:02:55.958Z,23.20
2018-05-21T12:05:22.459Z,23.30
2018-05-21T12:07:49.025Z,23.00
2018-05-21T12:10:15.443Z,23.10
2018-05-21T12:12:41.856Z,23.20
2018-05-21T12:15:08.271Z,23.30
2018-05-21T12:17:34.694Z,23.40
2018-05-21T12:20:01.929Z,23.30
2018-05-21T12:22:28.324Z,23.20
2018-05-21T12:24:54.869Z,23.20
2018-05-21T12:27:21.403Z,23.20
2018-05-21T12:29:47.933Z,23.10
2018-05-21T12:32:14.421Z,23.10
2018-05-21T12:34:40.935Z,23.00
2018-05-21T12:37:08.117Z,22.80
2018-05-21T12:39:34.921Z,22.80
2018-05-21T12:42:01.354Z,23.00
2018-05-21T12:44:28.134Z,23.10
2018-05-21T12:46:54.772Z,23.20
2018-05-21T12:49:21.868Z,22.90
2018-05-21T12:51:48.387Z,22.90
2018-05-21T12:54:15.051Z,23.00
2018-05-21T12:56:41.431Z,23.10
2018-05-21T12:59:07.864Z,23.10
2018-05-21T13:01:35.751Z,23.10
2018-05-21T13:04:02.675Z,23.00
2018-05-21T13:06:29.092Z,23.10
2018-05-21T13:08:55.550Z,23.30
2018-05-21T13:11:22.133Z,23.50
2018-05-21T13:13:49.455Z,23.40
2018-05-21T13:16:15.815Z,23.40
2018-05-21T13:18:43.003Z,23.20
2018-05-21T13:21:09.413Z,23.20
2018-05-21T13:23:36.622Z,23.20
2018-05-21T13:26:02.999Z,23.20
2018-05-21T13:28:29.380Z,23.10
2018-05-21T13:30:55.768Z,23.20
2018-05-21T13:33:22.544Z,23.10
2018-05-21T13:35:49.027Z,23.10
2018-05-21T13:38:15.521Z,23.10
2018-05-21T13:40:41.879Z,23.10
2018-05-21T13:43:09.463Z,23.30
2018-05-21T13:45:36.192Z,23.30
2018-05-21T13:48:03.094Z,23.30
2018-05-21T13:50:29.425Z,23.30
2018-05-21T13:52:55.853Z,23.40
2018-05-21T13:55:22.331Z,23.50
2018-05-21T13:57:49.425Z,23.70
2018-05-21T14:00:15.925Z,23.60
2018-05-21T14:02:42.404Z,23.50
2018-05-21T14:05:08.923Z,23.40
2018-05-21T14:07:35.431Z,23.50
2018-05-21T14:10:01.998Z,23.70
2018-05-21T14:12:28.393Z,23.80
2018-05-21T14:14:55.743Z,23.60
2018-05-21T14:17:22.278Z,23.60
2018-05-21T14:19:48.602Z,23.70
2018-05-21T14:22:15.700Z,23.40
2018-05-21T14:24:42.334Z,23.40
2018-05-21T14:27:08.735Z,23.20
2018-05-21T14:29:35.672Z,23.00
2018-05-21T14:32:02.576Z,23.00
2018-05-21T14:34:29.123Z,23.10
2018-05-21T14:36:56.041Z,23.10
2018-05-21T14:39:22.781Z,23.10
2018-05-21T14:41:49.430Z,23.10
2018-05-21T14:44:16.286Z,23.20
2018-05-21T14:46:43.284Z,23.30
2018-05-21T14:49:11.390Z,23.30
2018-05-21T14:51:38.125Z,23.20
2018-05-21T14:54:04.545Z,23.20
2018-05-21T14:56:31.179Z,23.20
2018-05-21T14:58:58.337Z,23.10
2018-05-21T15:01:25.697Z,23.10
2018-05-21T15:03:53.568Z,23.10
2018-05-21T15:06:19.959Z,23.00
2018-05-21T15:08:46.576Z,22.80
2018-05-21T15:11:13.745Z,22.60
2018-05-21T15:13:41.653Z,22.60
2018-05-21T15:16:08.233Z,22.50
2018-05-21T15:18:34.823Z,22.60
2018-05-21T15:21:01.460Z,22.70
2018-05-21T15:23:28.128Z,22.70
2018-05-21T15:25:55.276Z,22.80
2018-05-21T15:28:23.170Z,22.70
2018-05-21T15:30:50.592Z,22.70
2018-05-21T15:33:18.033Z,22.70
2018-05-21T15:35:44.602Z,22.70
2018-05-21T15:38:11.030Z,22.70
2018-05-21T15:40:38.310Z,22.80
2018-05-21T15:43:05.746Z,22.80
2018-05-21T15:45:32.419Z,22.70
2018-05-21T15:47:58.767Z,22.60
2018-05-21T15:50:25.233Z,22.60
2018-05-21T15:52:51.675Z,22.50
2018-05-21T15:55:18.927Z,22.70
2018-05-21T15:57:45.451Z,22.70
2018-05-21T16:00:12.545Z,22.70
2018-05-21T16:02:39.019Z,22.60
2018-05-21T16:05:05.517Z,22.60
2018-05-21T16:07:32.037Z,22.60
2018-05-21T16:09:58.371Z,22.70
2018-05-21T16:12:24.887Z,22.60
2018-05-21T16:14:52.287Z,22.60
2018-05-21T16:17:18.672Z,22.60
2018-05-21T16:19:45.107Z,22.60
2018-05-21T16:22:11.580Z,22.50
2018-05-21T16:24:37.978Z,22.30
2018-05-21T16:27:04.519Z,22.30
2018-05-21T16:29:31.050Z,22.20
2018-05-21T16:31:57.565Z,22.10
2018-05-21T16:34:24.786Z,22.10
2018-05-21T16:36:52.103Z,22.10
2018-05-21T16:39:18.661Z,22.00
2018-05-21T16:41:45.101Z,21.90
2018-05-21T16:44:12.549Z,21.90
2018-05-21T16:46:39.187Z,21.70
2018-05-21T16:49:05.787Z,21.70
2018-05-21T16:51:32.279Z,21.60
2018-05-21T16:53:58.930Z,21.60
2018-05-21T16:56:25.640Z,21.50
2018-05-21T16:58:52.547Z,21.40
2018-05-21T17:01:19.042Z,21.30
2018-05-21T17:03:46.229Z,21.20
2018-05-21T17:06:12.900Z,21.20
2018-05-21T17:08:39.429Z,21.20
2018-05-21T17:11:06.067Z,21.10
2018-05-21T17:13:32.603Z,21.10
2018-05-21T17:15:59.275Z,21.00
2018-05-21T17:18:26.476Z,20.90
2018-05-21T17:20:53.497Z,20.90
2018-05-21T17:23:20.175Z,20.80
2018-05-21T17:25:46.674Z,20.70
2018-05-21T17:28:13.349Z,20.60
2018-05-21T17:30:39.977Z,20.50
2018-05-21T17:33:06.944Z,20.50
2018-05-21T17:35:33.502Z,20.50
2018-05-21T17:38:00.677Z,20.30
2018-05-21T17:40:27.295Z,20.30
2018-05-21T17:42:54.537Z,20.10
2018-05-21T17:45:21.859Z,20.10
2018-05-21T17:47:48.223Z,20.00
2018-05-21T17:50:15.504Z,20.00
2018-05-21T17:52:41.981Z,19.90
2018-05-21T17:55:08.444Z,19.90
2018-05-21T17:57:35.856Z,19.70
2018-05-21T18:00:02.376Z,19.70
2018-05-21T18:02:28.950Z,19.60
2018-05-21T18:04:55.505Z,19.50
2018-05-21T18:07:22.763Z,19.40
2018-05-21T18:09:50.002Z,19.30
2018-05-21T18:12:17.185Z,19.30
2018-05-21T18:14:44.471Z,19.30
2018-05-21T18:17:11.162Z,19.20
2018-05-21T18:19:37.862Z,19.10
2018-05-21T18:22:05.131Z,18.90
2018-05-21T18:24:32.304Z,18.90
2018-05-21T18:26:59.096Z,18.80
2018-05-21T18:29:25.762Z,18.80
2018-05-21T18:31:53.439Z,18.60
2018-05-21T18:34:20.547Z,18.60
2018-05-21T18:36:47.782Z,18.50
2018-05-21T18:39:14.443Z,18.30
2018-05-21T18:41:41.176Z,18.20
2018-05-21T18:44:08.122Z,18.10
2018-05-21T18:46:36.514Z,17.70
2018-05-21T18:49:02.922Z,17.70
2018-05-21T18:51:29.441Z,17.50
2018-05-21T18:53:56.082Z,17.40
2018-05-21T18:56:22.561Z,17.20
2018-05-21T18:58:49.884Z,17.00
2018-05-21T19:01:16.419Z,17.00
2018-05-21T19:03:43.818Z,16.90
2018-05-21T19:06:10.427Z,16.80
2018-05-21T19:08:37.515Z,16.70
2018-05-21T19:11:03.981Z,16.50
2018-05-21T19:13:30.454Z,16.40
2018-05-21T19:18:49.258Z,15.90
2018-05-21T19:21:15.662Z,15.90
2018-05-21T19:23:42.969Z,15.60
2018-05-21T19:26:09.388Z,15.60
2018-05-21T19:28:35.783Z,15.50
2018-05-21T19:31:03.023Z,15.20
2018-05-21T19:33:30.150Z,15.10
2018-05-21T19:35:57.751Z,15.10
2018-05-21T19:38:24.885Z,14.80
2018-05-21T19:40:52.209Z,14.70
2018-05-21T19:43:18.816Z,14.70
2018-05-21T19:45:45.659Z,14.60
2018-05-21T19:48:12.079Z,14.50
2018-05-21T19:50:41.530Z,14.30
2018-05-21T19:53:09.571Z,14.10
2018-05-21T19:55:36.022Z,14.10
2018-05-21T19:58:05.359Z,14.00
2018-05-21T20:00:32.484Z,13.70
2018-05-21T20:02:59.103Z,13.70
2018-05-21T20:05:25.494Z,13.60
2018-05-21T20:07:51.928Z,13.50
2018-05-21T20:10:19.548Z,13.40
2018-05-21T20:12:46.396Z,13.40
2018-05-21T20:15:12.850Z,13.30
2018-05-21T20:17:39.560Z,13.20
2018-05-21T20:20:06.016Z,13.10
2018-05-21T20:22:33.464Z,12.90
2018-05-21T20:25:00.734Z,12.80
2018-05-21T20:27:27.218Z,12.80
2018-05-21T20:29:53.695Z,12.60
2018-05-21T20:32:20.862Z,12.50
2018-05-21T20:34:47.438Z,12.50
2018-05-21T20:37:13.941Z,12.50
2018-05-21T20:39:40.403Z,12.40
2018-05-21T20:42:06.849Z,12.30
2018-05-21T20:44:34.109Z,12.20
2018-05-21T20:47:00.477Z,12.10
2018-05-21T20:49:26.998Z,12.10
2018-05-21T20:51:54.416Z,11.90
2018-05-21T20:54:22.385Z,11.80
2018-05-21T20:56:48.896Z,11.80
2018-05-21T20:59:15.345Z,11.80
2018-05-21T21:01:41.796Z,11.70
2018-05-21T21:04:08.338Z,11.70
2018-05-21T21:06:35.669Z,11.50
2018-05-21T21:09:02.447Z,11.60
2018-05-21T21:11:28.910Z,11.60
2018-05-21T21:13:55.496Z,11.40
2018-05-21T21:16:21.947Z,11.30
2018-05-21T21:18:48.346Z,11.30
2018-05-21T21:21:15.472Z,11.10
2018-05-21T21:23:42.013Z,11.10
2018-05-21T21:26:09.511Z,11.10
2018-05-21T21:28:36.765Z,11.00
2018-05-21T21:31:03.383Z,11.00
2018-05-21T21:33:30.562Z,10.90
2018-05-21T21:35:57.045Z,10.90
2018-05-21T21:38:23.478Z,10.90
2018-05-21T21:40:50.026Z,10.80
2018-05-21T21:43:17.166Z,10.70
2018-05-21T21:45:43.606Z,10.70
2018-05-21T21:48:10.031Z,10.70
2018-05-21T21:50:36.531Z,10.70
2018-05-21T21:53:03.106Z,10.60
2018-05-21T21:55:29.626Z,10.60
2018-05-21T21:57:56.136Z,10.60
2018-05-21T22:00:22.699Z,10.60
2018-05-21T22:02:49.351Z,10.60
2018-05-21T22:05:16.587Z,10.60
2018-05-21T22:07:42.969Z,10.70
2018-05-21T22:10:09.500Z,10.70
2018-05-21T22:12:35.893Z,10.70
2018-05-21T22:15:02.424Z,10.70
2018-05-21T22:17:28.782Z,10.70
2018-05-21T22:19:55.841Z,10.60
2018-05-21T22:22:22.259Z,10.60
2018-05-21T22:24:49.791Z,10.60
2018-05-21T22:27:16.281Z,10.60
2018-05-21T22:29:42.691Z,10.60
2018-05-21T22:32:09.960Z,10.50
2018-05-21T22:34:36.481Z,10.50
2018-05-21T22:37:02.919Z,10.40
2018-05-21T22:39:29.403Z,10.40
2018-05-21T22:41:55.996Z,10.30
2018-05-21T22:44:22.519Z,10.30
2018-05-21T22:46:49.822Z,10.10
2018-05-21T22:49:16.253Z,10.10
2018-05-21T22:51:42.629Z,10.10
2018-05-21T22:54:10.083Z,10.00
2018-05-21T22:56:36.534Z,10.00
2018-05-21T22:59:03.191Z,10.00
2018-05-21T23:01:29.626Z,9.90
2018-05-21T23:03:55.988Z,9.90
2018-05-21T23:06:24.147Z,9.70
2018-05-21T23:08:50.529Z,9.70
2018-05-21T23:11:16.979Z,9.70
2018-05-21T23:13:43.669Z,9.70
2018-05-21T23:16:10.024Z,9.60
2018-05-21T23:18:37.272Z,9.60
2018-05-21T23:21:04.340Z,9.50
2018-05-21T23:23:30.845Z,9.50
2018-05-21T23:25:58.030Z,9.40
2018-05-21T23:28:24.461Z,9.30
2018-05-21T23:30:50.852Z,9.30
2018-05-21T23:33:18.375Z,9.30
2018-05-21T23:35:44.909Z,9.30
2018-05-21T23:38:11.349Z,9.30
2018-05-21T23:40:37.857Z,9.20
2018-05-21T23:43:04.261Z,9.10
2018-05-21T23:45:30.854Z,9.10
2018-05-21T23:47:57.225Z,9.10
2018-05-21T23:50:24.377Z,9.00
2018-05-21T23:52:50.818Z,8.90
2018-05-21T23:55:17.193Z,9.00
2018-05-21T23:57:45.257Z,8.90
